sensor_id;sensor_type;location;lat;lon;timestamp;pressure;altitude;pressure_sealevel;temperature;humidity
78014;BME280;67222;50.182;8.734;2023-04-15T05:30:16;99665.47;;;4.48;83.39
78014;BME280;67222;50.182;8.734;2023-04-15T05:32:42;99665.72;;;4.53;83.57
78014;BME280;67222;50.182;8.734;2023-04-15T05:35:07;99669.63;;;4.57;81.88
78014;BME280;67222;50.182;8.734;2023-04-15T05:37:32;99665.53;;;4.55;82.62
78014;BME280;67222;50.182;8.734;2023-04-15T05:39:58;99671.53;;;4.64;82.54
78014;BME280;67222;50.182;8.734;2023-04-15T05:42:23;99667.16;;;4.71;81.46
78014;BME280;67222;50.182;8.734;2023-04-15T05:44:48;99676.16;;;4.62;81.16
78014;BME280;67222;50.182;8.734;2023-04-15T05:47:14;99673.81;;;4.67;81.33
78014;BME280;67222;50.182;8.734;2023-04-15T05:49:39;99670.94;;;4.83;82.85
78014;BME280;67222;50.182;8.734;2023-04-15T05:52:05;99669.66;;;4.94;82.75
78014;BME280;67222;50.182;8.734;2023-04-15T05:54:30;99684.50;;;4.95;81.45
78014;BME280;67222;50.182;8.734;2023-04-15T05:56:55;99684.75;;;5.00;81.28
78014;BME280;67222;50.182;8.734;2023-04-15T05:59:21;99676.31;;;5.04;81.20
78014;BME280;67222;50.182;8.734;2023-04-15T06:01:47;99678.38;;;5.09;81.56
78014;BME280;67222;50.182;8.734;2023-04-15T06:04:12;99676.38;;;5.11;81.38
78014;BME280;67222;50.182;8.734;2023-04-15T06:06:37;99686.94;;;5.11;80.70
78014;BME280;67222;50.182;8.734;2023-04-15T06:09:03;99682.19;;;5.21;80.69
78014;BME280;67222;50.182;8.734;2023-04-15T06:11:29;99678.97;;;5.26;81.18
78014;BME280;67222;50.182;8.734;2023-04-15T06:13:54;99685.22;;;5.39;80.73
78014;BME280;67222;50.182;8.734;2023-04-15T06:16:20;99687.34;;;5.51;80.37
78014;BME280;67222;50.182;8.734;2023-04-15T06:18:47;99689.41;;;5.55;80.31
78014;BME280;67222;50.182;8.734;2023-04-15T06:21:12;99690.16;;;5.70;79.80
78014;BME280;67222;50.182;8.734;2023-04-15T06:23:37;99682.41;;;5.69;79.88
78014;BME280;67222;50.182;8.734;2023-04-15T06:26:05;99696.28;;;5.71;79.88
78014;BME280;67222;50.182;8.734;2023-04-15T06:28:30;99687.31;;;5.72;80.28
78014;BME280;67222;50.182;8.734;2023-04-15T06:30:56;99693.75;;;5.84;79.07
78014;BME280;67222;50.182;8.734;2023-04-15T06:33:21;99693.63;;;5.92;79.50
78014;BME280;67222;50.182;8.734;2023-04-15T06:35:46;99697.78;;;6.01;79.48
78014;BME280;67222;50.182;8.734;2023-04-15T06:38:13;99696.38;;;6.05;79.07
78014;BME280;67222;50.182;8.734;2023-04-15T06:40:39;99705.03;;;6.14;79.09
78014;BME280;67222;50.182;8.734;2023-04-15T06:43:04;99706.69;;;6.22;79.31
78014;BME280;67222;50.182;8.734;2023-04-15T06:45:30;99700.50;;;6.43;79.61
78014;BME280;67222;50.182;8.734;2023-04-15T06:47:56;99706.66;;;6.50;77.74
78014;BME280;67222;50.182;8.734;2023-04-15T06:50:21;99711.78;;;6.51;77.84
78014;BME280;67222;50.182;8.734;2023-04-15T06:52:46;99707.09;;;6.53;77.36
78014;BME280;67222;50.182;8.734;2023-04-15T06:55:12;99713.44;;;6.59;77.82
78014;BME280;67222;50.182;8.734;2023-04-15T06:57:37;99707.31;;;6.58;77.07
78014;BME280;67222;50.182;8.734;2023-04-15T07:00:03;99708.16;;;6.65;77.57
78014;BME280;67222;50.182;8.734;2023-04-15T07:02:29;99711.69;;;6.73;77.26
78014;BME280;67222;50.182;8.734;2023-04-15T07:04:55;99721.09;;;6.82;77.89
78014;BME280;67222;50.182;8.734;2023-04-15T07:07:21;99714.84;;;6.96;77.78
78014;BME280;67222;50.182;8.734;2023-04-15T07:09:46;99709.34;;;6.91;76.21
78014;BME280;67222;50.182;8.734;2023-04-15T07:12:11;99716.75;;;7.15;76.99
78014;BME280;67222;50.182;8.734;2023-04-15T07:14:37;99708.38;;;7.12;76.99
78014;BME280;67222;50.182;8.734;2023-04-15T07:17:02;99707.56;;;7.11;76.16
78014;BME280;67222;50.182;8.734;2023-04-15T07:19:27;99712.94;;;7.38;76.52
78014;BME280;67222;50.182;8.734;2023-04-15T07:21:53;99713.34;;;7.35;75.18
78014;BME280;67222;50.182;8.734;2023-04-15T07:24:18;99714.63;;;7.52;75.61
78014;BME280;67222;50.182;8.734;2023-04-15T07:26:44;99719.91;;;7.52;75.52
78014;BME280;67222;50.182;8.734;2023-04-15T07:29:10;99701.56;;;7.50;76.73
78014;BME280;67222;50.182;8.734;2023-04-15T07:31:36;99721.19;;;7.63;75.85
78014;BME280;67222;50.182;8.734;2023-04-15T07:34:02;99713.63;;;7.86;77.46
78014;BME280;67222;50.182;8.734;2023-04-15T07:36:27;99714.47;;;7.86;73.42
78014;BME280;67222;50.182;8.734;2023-04-15T07:38:53;99722.44;;;8.06;74.70
78014;BME280;67222;50.182;8.734;2023-04-15T07:41:19;99715.66;;;8.17;74.63
78014;BME280;67222;50.182;8.734;2023-04-15T07:43:46;99717.09;;;8.33;74.86
78014;BME280;67222;50.182;8.734;2023-04-15T07:46:11;99707.72;;;8.43;72.97
78014;BME280;67222;50.182;8.734;2023-04-15T07:48:36;99709.28;;;8.64;75.18
78014;BME280;67222;50.182;8.734;2023-04-15T07:51:02;99722.38;;;8.66;73.25
78014;BME280;67222;50.182;8.734;2023-04-15T07:53:27;99717.47;;;8.76;72.00
78014;BME280;67222;50.182;8.734;2023-04-15T07:55:53;99722.75;;;8.83;72.73
78014;BME280;67222;50.182;8.734;2023-04-15T07:58:18;99712.25;;;9.01;73.00
78014;BME280;67222;50.182;8.734;2023-04-15T08:00:43;99710.19;;;9.03;70.71
78014;BME280;67222;50.182;8.734;2023-04-15T08:03:09;99707.47;;;9.09;70.15
78014;BME280;67222;50.182;8.734;2023-04-15T08:05:34;99709.88;;;9.24;70.06
78014;BME280;67222;50.182;8.734;2023-04-15T08:07:59;99713.34;;;9.25;70.29
78014;BME280;67222;50.182;8.734;2023-04-15T08:10:25;99717.41;;;9.34;69.10
78014;BME280;67222;50.182;8.734;2023-04-15T08:12:51;99714.75;;;9.34;68.59
78014;BME280;67222;50.182;8.734;2023-04-15T08:15:19;99707.72;;;9.46;68.88
78014;BME280;67222;50.182;8.734;2023-04-15T08:17:44;99712.81;;;9.48;67.72
78014;BME280;67222;50.182;8.734;2023-04-15T08:20:10;99718.34;;;9.53;69.00
78014;BME280;67222;50.182;8.734;2023-04-15T08:22:35;99714.50;;;9.74;67.54
78014;BME280;67222;50.182;8.734;2023-04-15T08:25:01;99711.63;;;9.75;66.47
78014;BME280;67222;50.182;8.734;2023-04-15T08:27:26;99709.09;;;9.87;67.55
78014;BME280;67222;50.182;8.734;2023-04-15T08:29:51;99713.38;;;10.13;68.72
78014;BME280;67222;50.182;8.734;2023-04-15T08:32:17;99716.78;;;10.20;65.01
78014;BME280;67222;50.182;8.734;2023-04-15T08:34:43;99711.59;;;10.31;63.09
78014;BME280;67222;50.182;8.734;2023-04-15T08:37:08;99707.81;;;10.39;64.68
78014;BME280;67222;50.182;8.734;2023-04-15T08:39:33;99704.53;;;10.62;65.42
78014;BME280;67222;50.182;8.734;2023-04-15T08:42:00;99710.16;;;10.72;63.82
78014;BME280;67222;50.182;8.734;2023-04-15T08:44:28;99707.13;;;10.87;63.20
78014;BME280;67222;50.182;8.734;2023-04-15T08:46:55;99707.50;;;10.90;61.98
78014;BME280;67222;50.182;8.734;2023-04-15T08:49:24;99711.28;;;11.01;64.74
78014;BME280;67222;50.182;8.734;2023-04-15T08:51:51;99714.31;;;11.05;61.71
78014;BME280;67222;50.182;8.734;2023-04-15T08:54:17;99711.03;;;11.03;61.93
78014;BME280;67222;50.182;8.734;2023-04-15T08:56:43;99714.78;;;11.13;61.40
78014;BME280;67222;50.182;8.734;2023-04-15T08:59:09;99709.03;;;11.16;61.33
78014;BME280;67222;50.182;8.734;2023-04-15T09:01:36;99715.91;;;11.24;60.31
78014;BME280;67222;50.182;8.734;2023-04-15T09:04:02;99714.50;;;11.21;60.34
78014;BME280;67222;50.182;8.734;2023-04-15T09:06:27;99710.94;;;11.28;60.99
78014;BME280;67222;50.182;8.734;2023-04-15T09:08:53;99713.91;;;11.49;60.55
78014;BME280;67222;50.182;8.734;2023-04-15T09:11:20;99717.25;;;11.45;58.64
78014;BME280;67222;50.182;8.734;2023-04-15T09:13:45;99716.09;;;11.41;59.27
78014;BME280;67222;50.182;8.734;2023-04-15T09:16:12;99716.69;;;11.43;58.16
78014;BME280;67222;50.182;8.734;2023-04-15T09:18:38;99722.97;;;11.48;58.29
78014;BME280;67222;50.182;8.734;2023-04-15T09:21:08;99732.75;;;11.55;58.38
78014;BME280;67222;50.182;8.734;2023-04-15T09:23:36;99727.13;;;11.44;58.82
78014;BME280;67222;50.182;8.734;2023-04-15T09:26:03;99731.53;;;11.39;58.68
78014;BME280;67222;50.182;8.734;2023-04-15T09:28:28;99734.72;;;11.29;58.42
78014;BME280;67222;50.182;8.734;2023-04-15T09:30:55;99740.66;;;11.13;59.45
78014;BME280;67222;50.182;8.734;2023-04-15T09:33:22;99739.94;;;11.06;58.26
78014;BME280;67222;50.182;8.734;2023-04-15T09:36:02;99745.19;;;10.94;58.67
78014;BME280;67222;50.182;8.734;2023-04-15T09:38:29;99748.16;;;10.86;59.73
78014;BME280;67222;50.182;8.734;2023-04-15T09:40:55;99755.03;;;10.75;58.86
78014;BME280;67222;50.182;8.734;2023-04-15T09:43:21;99754.19;;;10.81;61.88
78014;BME280;67222;50.182;8.734;2023-04-15T09:45:51;99754.00;;;10.76;60.30
78014;BME280;67222;50.182;8.734;2023-04-15T09:50:45;99762.44;;;10.55;59.89
78014;BME280;67222;50.182;8.734;2023-04-15T09:53:21;99754.28;;;10.50;60.22
78014;BME280;67222;50.182;8.734;2023-04-15T09:55:51;99755.63;;;10.59;60.34
78014;BME280;67222;50.182;8.734;2023-04-15T09:58:20;99767.59;;;10.50;59.00
78014;BME280;67222;50.182;8.734;2023-04-15T10:00:47;99775.38;;;10.51;59.85
78014;BME280;67222;50.182;8.734;2023-04-15T10:03:18;99771.59;;;10.59;59.50
78014;BME280;67222;50.182;8.734;2023-04-15T10:05:46;99760.22;;;10.52;60.71
78014;BME280;67222;50.182;8.734;2023-04-15T10:08:12;99779.00;;;10.57;60.12
78014;BME280;67222;50.182;8.734;2023-04-15T10:10:38;99777.72;;;10.66;60.07
78014;BME280;67222;50.182;8.734;2023-04-15T10:13:04;99781.25;;;10.78;61.17
78014;BME280;67222;50.182;8.734;2023-04-15T10:15:31;99784.03;;;10.90;61.69
78014;BME280;67222;50.182;8.734;2023-04-15T10:18:00;99781.59;;;10.88;60.30
78014;BME280;67222;50.182;8.734;2023-04-15T10:20:27;99788.69;;;10.95;60.77
78014;BME280;67222;50.182;8.734;2023-04-15T10:22:53;99787.97;;;10.87;59.72
78014;BME280;67222;50.182;8.734;2023-04-15T10:25:19;99785.59;;;10.98;61.73
78014;BME280;67222;50.182;8.734;2023-04-15T10:27:45;99796.41;;;11.03;59.46
78014;BME280;67222;50.182;8.734;2023-04-15T10:30:12;99791.94;;;11.15;59.42
78014;BME280;67222;50.182;8.734;2023-04-15T10:32:39;99785.81;;;11.14;59.31
78014;BME280;67222;50.182;8.734;2023-04-15T10:35:05;99791.66;;;11.41;60.20
78014;BME280;67222;50.182;8.734;2023-04-15T10:37:35;99796.03;;;11.54;59.01
78014;BME280;67222;50.182;8.734;2023-04-15T10:43:02;99807.56;;;11.66;57.71
78014;BME280;67222;50.182;8.734;2023-04-15T10:45:33;99811.13;;;11.60;58.49
78014;BME280;67222;50.182;8.734;2023-04-15T10:48:01;99811.84;;;11.37;57.42
78014;BME280;67222;50.182;8.734;2023-04-15T10:50:30;99813.16;;;11.28;59.09
78014;BME280;67222;50.182;8.734;2023-04-15T10:52:57;99808.19;;;11.32;62.78
78014;BME280;67222;50.182;8.734;2023-04-15T10:55:24;99813.59;;;11.25;61.47
78014;BME280;67222;50.182;8.734;2023-04-15T10:57:58;99813.97;;;11.10;61.88
78014;BME280;67222;50.182;8.734;2023-04-15T11:00:28;99812.44;;;11.03;62.83
78014;BME280;67222;50.182;8.734;2023-04-15T11:03:07;99820.44;;;11.03;64.33
78014;BME280;67222;50.182;8.734;2023-04-15T11:05:52;99813.97;;;11.10;66.39
78014;BME280;67222;50.182;8.734;2023-04-15T11:08:18;99816.94;;;11.20;65.94
78014;BME280;67222;50.182;8.734;2023-04-15T11:15:45;99820.72;;;11.31;68.68
78014;BME280;67222;50.182;8.734;2023-04-15T11:21:02;99829.03;;;11.23;70.49
78014;BME280;67222;50.182;8.734;2023-04-15T11:23:41;99832.88;;;11.27;70.26
78014;BME280;67222;50.182;8.734;2023-04-15T11:26:13;99835.03;;;11.18;73.59
78014;BME280;67222;50.182;8.734;2023-04-15T11:28:40;99840.22;;;11.13;70.53
78014;BME280;67222;50.182;8.734;2023-04-15T11:31:07;99835.69;;;11.14;71.83
78014;BME280;67222;50.182;8.734;2023-04-15T11:33:34;99833.19;;;11.01;70.54
78014;BME280;67222;50.182;8.734;2023-04-15T11:36:00;99839.00;;;10.91;73.55
78014;BME280;67222;50.182;8.734;2023-04-15T11:38:26;99847.13;;;10.78;72.52
78014;BME280;67222;50.182;8.734;2023-04-15T11:40:52;99850.06;;;10.70;72.26
78014;BME280;67222;50.182;8.734;2023-04-15T11:43:21;99854.88;;;10.61;74.43
78014;BME280;67222;50.182;8.734;2023-04-15T11:48:13;99856.84;;;10.41;73.87
78014;BME280;67222;50.182;8.734;2023-04-15T11:50:39;99871.41;;;10.45;73.34
78014;BME280;67222;50.182;8.734;2023-04-15T11:53:07;99867.34;;;10.36;75.34
78014;BME280;67222;50.182;8.734;2023-04-15T11:55:46;99869.88;;;10.30;75.89
78014;BME280;67222;50.182;8.734;2023-04-15T11:58:14;99871.50;;;10.31;76.85
78014;BME280;67222;50.182;8.734;2023-04-15T12:00:47;99880.03;;;10.40;76.50
78014;BME280;67222;50.182;8.734;2023-04-15T12:08:54;99891.91;;;10.44;77.14
78014;BME280;67222;50.182;8.734;2023-04-15T12:14:20;99900.22;;;10.29;78.22
78014;BME280;67222;50.182;8.734;2023-04-15T12:16:48;99900.75;;;10.38;78.61
78014;BME280;67222;50.182;8.734;2023-04-15T12:19:16;99901.94;;;10.49;77.94
78014;BME280;67222;50.182;8.734;2023-04-15T12:21:44;99905.69;;;10.41;78.49
78014;BME280;67222;50.182;8.734;2023-04-15T12:24:11;99910.56;;;10.44;79.02
78014;BME280;67222;50.182;8.734;2023-04-15T12:26:47;99918.66;;;10.31;79.02
78014;BME280;67222;50.182;8.734;2023-04-15T12:29:13;99908.44;;;10.21;78.67
78014;BME280;67222;50.182;8.734;2023-04-15T12:31:53;99917.25;;;10.15;78.42
78014;BME280;67222;50.182;8.734;2023-04-15T12:34:28;99916.84;;;10.18;78.86
78014;BME280;67222;50.182;8.734;2023-04-15T12:36:54;99926.72;;;10.11;78.79
78014;BME280;67222;50.182;8.734;2023-04-15T12:39:24;99926.75;;;10.05;78.46
78014;BME280;67222;50.182;8.734;2023-04-15T12:41:50;99931.47;;;10.02;78.98
78014;BME280;67222;50.182;8.734;2023-04-15T12:44:15;99931.50;;;9.96;78.94
78014;BME280;67222;50.182;8.734;2023-04-15T12:46:41;99938.84;;;10.00;80.09
78014;BME280;67222;50.182;8.734;2023-04-15T12:49:07;99941.81;;;9.86;80.53
78014;BME280;67222;50.182;8.734;2023-04-15T12:51:32;99940.16;;;9.78;80.99
78014;BME280;67222;50.182;8.734;2023-04-15T12:53:57;99941.81;;;9.86;81.70
78014;BME280;67222;50.182;8.734;2023-04-15T12:56:23;99945.63;;;9.96;80.96
78014;BME280;67222;50.182;8.734;2023-04-15T12:58:48;99948.91;;;9.98;81.27
78014;BME280;67222;50.182;8.734;2023-04-15T13:01:14;99950.69;;;10.11;82.03
78014;BME280;67222;50.182;8.734;2023-04-15T13:03:39;99947.97;;;10.31;79.97
78014;BME280;67222;50.182;8.734;2023-04-15T13:06:04;99950.41;;;10.32;79.45
78014;BME280;67222;50.182;8.734;2023-04-15T13:08:30;99949.38;;;10.34;80.03
78014;BME280;67222;50.182;8.734;2023-04-15T13:10:55;99963.53;;;10.34;79.97
78014;BME280;67222;50.182;8.734;2023-04-15T13:13:21;99954.06;;;10.38;79.95
78014;BME280;67222;50.182;8.734;2023-04-15T13:15:46;99967.00;;;10.35;76.97
78014;BME280;67222;50.182;8.734;2023-04-15T13:18:11;99966.03;;;10.22;75.81
78014;BME280;67222;50.182;8.734;2023-04-15T13:20:37;99960.28;;;10.19;77.53
78014;BME280;67222;50.182;8.734;2023-04-15T13:23:02;99962.97;;;10.12;79.31
78014;BME280;67222;50.182;8.734;2023-04-15T13:25:28;99963.34;;;10.22;77.41
78014;BME280;67222;50.182;8.734;2023-04-15T13:27:53;99960.16;;;10.07;74.42
78014;BME280;67222;50.182;8.734;2023-04-15T13:30:19;99966.50;;;10.06;77.11
78014;BME280;67222;50.182;8.734;2023-04-15T13:32:44;99962.59;;;10.09;74.69
78014;BME280;67222;50.182;8.734;2023-04-15T13:35:10;99975.53;;;10.05;74.59
78014;BME280;67222;50.182;8.734;2023-04-15T13:37:35;99970.25;;;9.92;74.09
78014;BME280;67222;50.182;8.734;2023-04-15T13:40:00;99961.06;;;9.75;74.31
78014;BME280;67222;50.182;8.734;2023-04-15T13:42:26;99970.13;;;9.67;75.53
78014;BME280;67222;50.182;8.734;2023-04-15T13:44:51;99971.34;;;9.58;76.69
78014;BME280;67222;50.182;8.734;2023-04-15T13:47:20;99971.16;;;9.59;77.31
78014;BME280;67222;50.182;8.734;2023-04-15T13:49:46;99972.19;;;9.58;76.47
78014;BME280;67222;50.182;8.734;2023-04-15T13:52:11;99974.63;;;9.60;77.63
78014;BME280;67222;50.182;8.734;2023-04-15T13:54:37;99978.28;;;9.65;76.00
78014;BME280;67222;50.182;8.734;2023-04-15T13:57:02;99978.09;;;9.60;76.38
78014;BME280;67222;50.182;8.734;2023-04-15T13:59:28;99987.97;;;9.53;78.64
78014;BME280;67222;50.182;8.734;2023-04-15T14:01:53;99985.31;;;9.40;78.38
78014;BME280;67222;50.182;8.734;2023-04-15T14:04:18;99992.66;;;9.45;79.58
78014;BME280;67222;50.182;8.734;2023-04-15T14:06:44;99986.75;;;9.49;81.16
78014;BME280;67222;50.182;8.734;2023-04-15T14:09:09;99995.13;;;9.46;80.75
78014;BME280;67222;50.182;8.734;2023-04-15T14:11:38;99996.56;;;9.55;80.73
78014;BME280;67222;50.182;8.734;2023-04-15T14:14:03;99993.88;;;9.55;80.68
78014;BME280;67222;50.182;8.734;2023-04-15T14:16:28;99995.91;;;9.60;80.05
78014;BME280;67222;50.182;8.734;2023-04-15T14:18:54;100002.66;;;9.62;81.28
78014;BME280;67222;50.182;8.734;2023-04-15T14:21:19;100005.53;;;9.61;80.60
78014;BME280;67222;50.182;8.734;2023-04-15T14:23:45;100005.34;;;9.62;79.25
78014;BME280;67222;50.182;8.734;2023-04-15T14:26:10;100009.84;;;9.68;79.17
78014;BME280;67222;50.182;8.734;2023-04-15T14:28:35;100010.66;;;9.62;81.55
78014;BME280;67222;50.182;8.734;2023-04-15T14:31:03;100018.88;;;9.54;81.43
78014;BME280;67222;50.182;8.734;2023-04-15T14:33:28;100013.34;;;9.49;80.86
78014;BME280;67222;50.182;8.734;2023-04-15T14:35:53;100016.03;;;9.49;81.42
78014;BME280;67222;50.182;8.734;2023-04-15T14:38:18;100025.63;;;9.37;82.08
78014;BME280;67222;50.182;8.734;2023-04-15T14:40:46;100028.50;;;9.35;81.34
78014;BME280;67222;50.182;8.734;2023-04-15T14:43:12;100035.69;;;9.35;80.06
78014;BME280;67222;50.182;8.734;2023-04-15T14:45:37;100027.09;;;9.33;81.64
78014;BME280;67222;50.182;8.734;2023-04-15T14:48:03;100031.16;;;9.42;82.52
78014;BME280;67222;50.182;8.734;2023-04-15T14:50:30;100031.16;;;9.35;81.27
78014;BME280;67222;50.182;8.734;2023-04-15T14:52:56;100040.97;;;9.22;80.28
78014;BME280;67222;50.182;8.734;2023-04-15T14:55:21;100044.06;;;9.32;81.25
78014;BME280;67222;50.182;8.734;2023-04-15T14:57:46;100049.38;;;9.25;81.23
78014;BME280;67222;50.182;8.734;2023-04-15T15:00:12;100053.47;;;9.34;81.60
78014;BME280;67222;50.182;8.734;2023-04-15T15:02:37;100052.84;;;9.26;82.89
78014;BME280;67222;50.182;8.734;2023-04-15T15:05:03;100052.25;;;9.30;81.30
78014;BME280;67222;50.182;8.734;2023-04-15T15:07:28;100056.75;;;9.30;80.96
78014;BME280;67222;50.182;8.734;2023-04-15T15:09:54;100061.47;;;9.34;83.01
78014;BME280;67222;50.182;8.734;2023-04-15T15:12:20;100062.47;;;9.27;82.32
78014;BME280;67222;50.182;8.734;2023-04-15T15:14:47;100074.34;;;9.24;81.77
78014;BME280;67222;50.182;8.734;2023-04-15T15:17:13;100080.06;;;9.15;80.56
78014;BME280;67222;50.182;8.734;2023-04-15T15:19:38;100069.19;;;9.09;81.34
78014;BME280;67222;50.182;8.734;2023-04-15T15:22:04;100075.38;;;9.17;82.56
78014;BME280;67222;50.182;8.734;2023-04-15T15:24:29;100075.94;;;9.05;82.23
78014;BME280;67222;50.182;8.734;2023-04-15T15:26:55;100078.63;;;9.05;81.37
78014;BME280;67222;50.182;8.734;2023-04-15T15:29:21;100070.63;;;9.05;83.22
78014;BME280;67222;50.182;8.734;2023-04-15T15:31:47;100078.19;;;9.08;82.41
78014;BME280;67222;50.182;8.734;2023-04-15T15:34:12;100076.16;;;9.10;82.01
78014;BME280;67222;50.182;8.734;2023-04-15T15:36:37;100085.97;;;8.97;82.56
78014;BME280;67222;50.182;8.734;2023-04-15T15:39:03;100090.28;;;8.98;83.53
78014;BME280;67222;50.182;8.734;2023-04-15T15:41:28;100086.38;;;9.07;82.24
78014;BME280;67222;50.182;8.734;2023-04-15T15:43:53;100089.91;;;9.14;82.67
78014;BME280;67222;50.182;8.734;2023-04-15T15:46:19;100092.31;;;9.02;82.96
78014;BME280;67222;50.182;8.734;2023-04-15T15:48:44;100087.63;;;8.98;83.07
78014;BME280;67222;50.182;8.734;2023-04-15T15:51:10;100096.56;;;8.90;83.22
78014;BME280;67222;50.182;8.734;2023-04-15T15:53:35;100097.19;;;8.92;82.33
78014;BME280;67222;50.182;8.734;2023-04-15T15:56:01;100102.72;;;8.84;82.73
78014;BME280;67222;50.182;8.734;2023-04-15T15:58:29;100101.69;;;8.85;84.01
78014;BME280;67222;50.182;8.734;2023-04-15T16:00:55;100117.47;;;8.93;82.81
78014;BME280;67222;50.182;8.734;2023-04-15T16:03:20;100114.22;;;8.98;84.73
78014;BME280;67222;50.182;8.734;2023-04-15T16:05:46;100110.06;;;8.89;84.21
78014;BME280;67222;50.182;8.734;2023-04-15T16:08:11;100118.66;;;8.84;84.23
78014;BME280;67222;50.182;8.734;2023-04-15T16:10:37;100118.66;;;8.84;84.52
78014;BME280;67222;50.182;8.734;2023-04-15T16:13:02;100115.78;;;8.79;84.84
78014;BME280;67222;50.182;8.734;2023-04-15T16:15:28;100131.34;;;8.82;83.52
78014;BME280;67222;50.182;8.734;2023-04-15T16:17:53;100122.34;;;8.83;84.55
78014;BME280;67222;50.182;8.734;2023-04-15T16:20:18;100128.25;;;8.78;84.54
78014;BME280;67222;50.182;8.734;2023-04-15T16:22:44;100128.28;;;8.85;84.67
78014;BME280;67222;50.182;8.734;2023-04-15T16:25:09;100135.38;;;8.71;84.11
78014;BME280;67222;50.182;8.734;2023-04-15T16:27:35;100137.66;;;8.74;85.47
78014;BME280;67222;50.182;8.734;2023-04-15T16:30:01;100138.66;;;8.73;85.52
78014;BME280;67222;50.182;8.734;2023-04-15T16:32:26;100142.38;;;8.79;86.27
78014;BME280;67222;50.182;8.734;2023-04-15T16:34:51;100132.50;;;8.73;84.86
78014;BME280;67222;50.182;8.734;2023-04-15T16:37:17;100153.34;;;8.69;84.40
78014;BME280;67222;50.182;8.734;2023-04-15T16:39:42;100152.13;;;8.72;85.02
78014;BME280;67222;50.182;8.734;2023-04-15T16:42:08;100148.66;;;8.65;84.30
78014;BME280;67222;50.182;8.734;2023-04-15T16:44:33;100147.03;;;8.70;85.52
78014;BME280;67222;50.182;8.734;2023-04-15T16:46:58;100160.50;;;8.69;86.61
78014;BME280;67222;50.182;8.734;2023-04-15T16:49:26;100159.47;;;8.63;85.41
78014;BME280;67222;50.182;8.734;2023-04-15T16:51:51;100156.41;;;8.66;86.79
78014;BME280;67222;50.182;8.734;2023-04-15T16:54:16;100163.34;;;8.61;86.08
78014;BME280;67222;50.182;8.734;2023-04-15T16:56:42;100164.41;;;8.66;86.38
78014;BME280;67222;50.182;8.734;2023-04-15T16:59:07;100171.13;;;8.62;85.61
78014;BME280;67222;50.182;8.734;2023-04-15T17:01:32;100167.84;;;8.60;85.80
78014;BME280;67222;50.182;8.734;2023-04-15T17:03:58;100169.28;;;8.63;86.32
78014;BME280;67222;50.182;8.734;2023-04-15T17:06:23;100168.28;;;8.64;86.69
78014;BME280;67222;50.182;8.734;2023-04-15T17:08:48;100173.00;;;8.68;85.82
78014;BME280;67222;50.182;8.734;2023-04-15T17:11:13;100176.72;;;8.74;85.83
78014;BME280;67222;50.182;8.734;2023-04-15T17:13:39;100187.72;;;8.71;85.41
78014;BME280;67222;50.182;8.734;2023-04-15T17:16:05;100190.19;;;8.72;85.27
78014;BME280;67222;50.182;8.734;2023-04-15T17:18:30;100195.13;;;8.75;86.45
78014;BME280;67222;50.182;8.734;2023-04-15T17:20:56;100194.06;;;8.70;85.03
78014;BME280;67222;50.182;8.734;2023-04-15T17:23:21;100195.53;;;8.79;85.38
78014;BME280;67222;50.182;8.734;2023-04-15T17:25:46;100192.84;;;8.72;85.46
78014;BME280;67222;50.182;8.734;2023-04-15T17:28:12;100198.13;;;8.66;86.06
78014;BME280;67222;50.182;8.734;2023-04-15T17:30:37;100206.91;;;8.66;85.98
78014;BME280;67222;50.182;8.734;2023-04-15T17:33:03;100198.59;;;8.76;87.12
78014;BME280;67222;50.182;8.734;2023-04-15T17:35:28;100208.63;;;8.74;87.02
78014;BME280;67222;50.182;8.734;2023-04-15T17:37:53;100215.78;;;8.80;86.86
78014;BME280;67222;50.182;8.734;2023-04-15T17:40:20;100209.44;;;8.74;86.75
78014;BME280;67222;50.182;8.734;2023-04-15T17:42:45;100222.13;;;8.79;87.14
78014;BME280;67222;50.182;8.734;2023-04-15T17:45:10;100229.47;;;8.77;86.81
78014;BME280;67222;50.182;8.734;2023-04-15T17:47:36;100238.22;;;8.71;86.71
78014;BME280;67222;50.182;8.734;2023-04-15T17:50:01;100238.41;;;8.63;86.19
78014;BME280;67222;50.182;8.734;2023-04-15T17:52:26;100233.88;;;8.57;86.09
78014;BME280;67222;50.182;8.734;2023-04-15T17:54:52;100245.31;;;8.57;86.22
78014;BME280;67222;50.182;8.734;2023-04-15T17:57:17;100243.22;;;8.53;85.72
78014;BME280;67222;50.182;8.734;2023-04-15T17:59:42;100253.53;;;8.62;86.24
78014;BME280;67222;50.182;8.734;2023-04-15T18:02:09;100259.78;;;8.55;85.53
78014;BME280;67222;50.182;8.734;2023-04-15T18:04:35;100252.41;;;8.50;85.84
78014;BME280;67222;50.182;8.734;2023-04-15T18:07:00;100261.19;;;8.50;85.56
78014;BME280;67222;50.182;8.734;2023-04-15T18:09:26;100266.91;;;8.47;85.86
78014;BME280;67222;50.182;8.734;2023-04-15T18:11:51;100262.84;;;8.52;86.02
78014;BME280;67222;50.182;8.734;2023-04-15T18:14:17;100272.66;;;8.51;86.67
78014;BME280;67222;50.182;8.734;2023-04-15T18:16:42;100273.44;;;8.45;86.96
78014;BME280;67222;50.182;8.734;2023-04-15T18:19:09;100274.25;;;8.45;87.44
78014;BME280;67222;50.182;8.734;2023-04-15T18:21:34;100281.72;;;8.57;87.77
78014;BME280;67222;50.182;8.734;2023-04-15T18:24:00;100290.63;;;8.49;86.30
78014;BME280;67222;50.182;8.734;2023-04-15T18:26:26;100296.34;;;8.46;87.01
78014;BME280;67222;50.182;8.734;2023-04-15T18:28:52;100297.53;;;8.43;86.18
78014;BME280;67222;50.182;8.734;2023-04-15T18:31:17;100293.06;;;8.44;87.48
78014;BME280;67222;50.182;8.734;2023-04-15T18:33:42;100295.94;;;8.49;87.34
78014;BME280;67222;50.182;8.734;2023-04-15T18:36:08;100298.00;;;8.54;87.57
78014;BME280;67222;50.182;8.734;2023-04-15T18:38:34;100297.78;;;8.48;87.76
78014;BME280;67222;50.182;8.734;2023-04-15T18:40:59;100303.06;;;8.42;87.93
78014;BME280;67222;50.182;8.734;2023-04-15T18:43:24;100302.03;;;8.43;87.86
78014;BME280;67222;50.182;8.734;2023-04-15T18:45:50;100304.50;;;8.44;87.24
78014;BME280;67222;50.182;8.734;2023-04-15T18:48:16;100307.97;;;8.45;87.50
78014;BME280;67222;50.182;8.734;2023-04-15T18:50:42;100308.38;;;8.42;88.04